sensor_id;sensor_type;location;lat;lon;timestamp;P1;durP1;ratioP1;P2;durP2;ratioP2
18738;SDS011;9498;51.862;19.460;2022-10-31T00:00:05;56.67;;;24.17;;
18738;SDS011;9498;51.862;19.460;2022-10-31T00:02:33;47.13;;;21.57;;
18738;SDS011;9498;51.862;19.460;2022-10-31T00:05:00;49.40;;;20.80;;
18738;SDS011;9498;51.862;19.460;2022-10-31T00:07:27;49.03;;;21.40;;
18738;SDS011;9498;51.862;19.460;2022-10-31T00:09:55;57.03;;;21.27;;
18738;SDS011;9498;51.862;19.460;2022-10-31T00:12:22;54.00;;;21.93;;
18738;SDS011;9498;51.862;19.460;2022-10-31T00:14:49;57.13;;;22.07;;
18738;SDS011;9498;51.862;19.460;2022-10-31T00:17:18;50.33;;;22.03;;
18738;SDS011;9498;51.862;19.460;2022-10-31T00:19:45;46.30;;;21.10;;
18738;SDS011;9498;51.862;19.460;2022-10-31T00:22:12;47.47;;;20.23;;
18738;SDS011;9498;51.862;19.460;2022-10-31T00:24:39;47.10;;;20.73;;
18738;SDS011;9498;51.862;19.460;2022-10-31T00:27:07;53.93;;;21.90;;
18738;SDS011;9498;51.862;19.460;2022-10-31T00:29:34;58.43;;;21.67;;
18738;SDS011;9498;51.862;19.460;2022-10-31T00:32:01;48.00;;;21.90;;
18738;SDS011;9498;51.862;19.460;2022-10-31T00:34:30;56.80;;;24.20;;
18738;SDS011;9498;51.862;19.460;2022-10-31T00:36:57;68.17;;;23.63;;
18738;SDS011;9498;51.862;19.460;2022-10-31T00:39:24;52.03;;;22.07;;
18738;SDS011;9498;51.862;19.460;2022-10-31T00:41:51;49.20;;;21.03;;
18738;SDS011;9498;51.862;19.460;2022-10-31T00:44:18;42.83;;;19.67;;
18738;SDS011;9498;51.862;19.460;2022-10-31T00:46:46;42.97;;;20.10;;
18738;SDS011;9498;51.862;19.460;2022-10-31T00:49:13;46.63;;;20.40;;
18738;SDS011;9498;51.862;19.460;2022-10-31T00:51:42;43.83;;;19.67;;
18738;SDS011;9498;51.862;19.460;2022-10-31T00:54:09;52.30;;;23.17;;
18738;SDS011;9498;51.862;19.460;2022-10-31T00:56:36;55.17;;;22.30;;
18738;SDS011;9498;51.862;19.460;2022-10-31T00:59:03;44.23;;;19.97;;
18738;SDS011;9498;51.862;19.460;2022-10-31T01:01:30;45.43;;;19.97;;
18738;SDS011;9498;51.862;19.460;2022-10-31T01:03:58;48.63;;;20.73;;
18738;SDS011;9498;51.862;19.460;2022-10-31T01:06:25;43.83;;;19.60;;
18738;SDS011;9498;51.862;19.460;2022-10-31T01:08:53;46.37;;;20.07;;
18738;SDS011;9498;51.862;19.460;2022-10-31T01:11:21;42.33;;;19.20;;
18738;SDS011;9498;51.862;19.460;2022-10-31T01:13:49;49.03;;;20.97;;
18738;SDS011;9498;51.862;19.460;2022-10-31T01:16:17;49.53;;;20.03;;
18738;SDS011;9498;51.862;19.460;2022-10-31T01:18:45;46.43;;;21.17;;
18738;SDS011;9498;51.862;19.460;2022-10-31T01:21:14;46.63;;;20.90;;
18738;SDS011;9498;51.862;19.460;2022-10-31T01:23:41;40.67;;;20.03;;
18738;SDS011;9498;51.862;19.460;2022-10-31T01:26:11;45.87;;;20.53;;
18738;SDS011;9498;51.862;19.460;2022-10-31T01:28:39;41.33;;;19.47;;
18738;SDS011;9498;51.862;19.460;2022-10-31T01:31:07;49.35;;;21.83;;
18738;SDS011;9498;51.862;19.460;2022-10-31T01:33:35;45.80;;;19.53;;
18738;SDS011;9498;51.862;19.460;2022-10-31T01:36:10;48.30;;;21.00;;
18738;SDS011;9498;51.862;19.460;2022-10-31T01:38:37;45.97;;;19.40;;
18738;SDS011;9498;51.862;19.460;2022-10-31T01:41:05;44.63;;;20.20;;
18738;SDS011;9498;51.862;19.460;2022-10-31T01:43:47;40.30;;;18.60;;
18738;SDS011;9498;51.862;19.460;2022-10-31T01:46:15;42.58;;;19.15;;
18738;SDS011;9498;51.862;19.460;2022-10-31T01:48:43;45.27;;;19.10;;
18738;SDS011;9498;51.862;19.460;2022-10-31T01:51:10;45.00;;;19.33;;
18738;SDS011;9498;51.862;19.460;2022-10-31T01:53:39;46.30;;;19.73;;
18738;SDS011;9498;51.862;19.460;2022-10-31T01:56:06;44.87;;;20.53;;
18738;SDS011;9498;51.862;19.460;2022-10-31T01:58:34;45.73;;;20.57;;
18738;SDS011;9498;51.862;19.460;2022-10-31T02:01:03;50.40;;;19.83;;
18738;SDS011;9498;51.862;19.460;2022-10-31T02:03:31;46.53;;;20.03;;
18738;SDS011;9498;51.862;19.460;2022-10-31T02:05:58;46.93;;;18.63;;
18738;SDS011;9498;51.862;19.460;2022-10-31T02:08:27;42.17;;;19.23;;
18738;SDS011;9498;51.862;19.460;2022-10-31T02:10:54;44.83;;;19.13;;
18738;SDS011;9498;51.862;19.460;2022-10-31T02:13:23;47.43;;;19.80;;
18738;SDS011;9498;51.862;19.460;2022-10-31T02:15:52;47.13;;;19.23;;
18738;SDS011;9498;51.862;19.460;2022-10-31T02:18:21;46.25;;;20.65;;
18738;SDS011;9498;51.862;19.460;2022-10-31T02:20:54;43.87;;;20.30;;
18738;SDS011;9498;51.862;19.460;2022-10-31T02:23:33;48.70;;;19.77;;
18738;SDS011;9498;51.862;19.460;2022-10-31T02:26:10;43.33;;;19.07;;
18738;SDS011;9498;51.862;19.460;2022-10-31T02:28:47;53.20;;;20.47;;
18738;SDS011;9498;51.862;19.460;2022-10-31T02:31:22;50.67;;;20.00;;
18738;SDS011;9498;51.862;19.460;2022-10-31T02:33:55;45.33;;;18.83;;
18738;SDS011;9498;51.862;19.460;2022-10-31T02:36:25;45.83;;;19.57;;
18738;SDS011;9498;51.862;19.460;2022-10-31T02:38:56;43.23;;;19.60;;
18738;SDS011;9498;51.862;19.460;2022-10-31T02:41:27;42.60;;;18.83;;
18738;SDS011;9498;51.862;19.460;2022-10-31T02:43:57;48.13;;;20.80;;
18738;SDS011;9498;51.862;19.460;2022-10-31T02:46:30;43.17;;;17.90;;
18738;SDS011;9498;51.862;19.460;2022-10-31T02:49:01;41.40;;;17.77;;
18738;SDS011;9498;51.862;19.460;2022-10-31T02:51:30;41.87;;;18.03;;
18738;SDS011;9498;51.862;19.460;2022-10-31T02:53:58;44.63;;;19.17;;
18738;SDS011;9498;51.862;19.460;2022-10-31T02:56:25;49.93;;;19.00;;
18738;SDS011;9498;51.862;19.460;2022-10-31T02:58:53;55.83;;;21.10;;
18738;SDS011;9498;51.862;19.460;2022-10-31T03:04:11;64.10;;;23.27;;
18738;SDS011;9498;51.862;19.460;2022-10-31T03:06:41;55.77;;;23.03;;
18738;SDS011;9498;51.862;19.460;2022-10-31T03:09:13;53.07;;;22.83;;
18738;SDS011;9498;51.862;19.460;2022-10-31T03:11:46;69.85;;;26.55;;
18738;SDS011;9498;51.862;19.460;2022-10-31T03:14:19;62.50;;;23.73;;
18738;SDS011;9498;51.862;19.460;2022-10-31T03:16:49;64.27;;;23.27;;
18738;SDS011;9498;51.862;19.460;2022-10-31T03:19:18;67.80;;;24.50;;
18738;SDS011;9498;51.862;19.460;2022-10-31T03:21:48;56.27;;;23.93;;
18738;SDS011;9498;51.862;19.460;2022-10-31T03:24:16;57.90;;;22.83;;
18738;SDS011;9498;51.862;19.460;2022-10-31T03:26:46;57.50;;;23.17;;
18738;SDS011;9498;51.862;19.460;2022-10-31T03:29:15;70.17;;;25.10;;
18738;SDS011;9498;51.862;19.460;2022-10-31T03:31:44;68.70;;;25.93;;
18738;SDS011;9498;51.862;19.460;2022-10-31T03:34:11;65.13;;;25.10;;
18738;SDS011;9498;51.862;19.460;2022-10-31T03:36:41;65.67;;;25.50;;
18738;SDS011;9498;51.862;19.460;2022-10-31T03:39:08;76.27;;;27.93;;
18738;SDS011;9498;51.862;19.460;2022-10-31T03:41:39;81.67;;;31.13;;
18738;SDS011;9498;51.862;19.460;2022-10-31T03:44:08;86.73;;;35.00;;
18738;SDS011;9498;51.862;19.460;2022-10-31T03:46:37;109.93;;;37.07;;
18738;SDS011;9498;51.862;19.460;2022-10-31T03:49:05;84.50;;;31.50;;
18738;SDS011;9498;51.862;19.460;2022-10-31T03:51:34;85.03;;;33.97;;
18738;SDS011;9498;51.862;19.460;2022-10-31T03:54:07;92.33;;;34.57;;
18738;SDS011;9498;51.862;19.460;2022-10-31T03:56:37;94.87;;;36.13;;
18738;SDS011;9498;51.862;19.460;2022-10-31T03:59:07;104.40;;;37.27;;
18738;SDS011;9498;51.862;19.460;2022-10-31T04:01:37;113.22;;;45.90;;
18738;SDS011;9498;51.862;19.460;2022-10-31T04:04:05;99.03;;;37.00;;
18738;SDS011;9498;51.862;19.460;2022-10-31T04:06:33;101.73;;;40.40;;
18738;SDS011;9498;51.862;19.460;2022-10-31T04:09:02;100.50;;;36.27;;
18738;SDS011;9498;51.862;19.460;2022-10-31T04:11:33;95.13;;;35.23;;
18738;SDS011;9498;51.862;19.460;2022-10-31T04:14:01;100.33;;;37.63;;
18738;SDS011;9498;51.862;19.460;2022-10-31T04:16:29;100.63;;;37.10;;
18738;SDS011;9498;51.862;19.460;2022-10-31T04:18:56;125.70;;;41.90;;
18738;SDS011;9498;51.862;19.460;2022-10-31T04:21:26;139.07;;;44.90;;
18738;SDS011;9498;51.862;19.460;2022-10-31T04:23:54;113.17;;;39.07;;
18738;SDS011;9498;51.862;19.460;2022-10-31T04:26:21;129.67;;;43.43;;
18738;SDS011;9498;51.862;19.460;2022-10-31T04:28:50;123.53;;;44.27;;
18738;SDS011;9498;51.862;19.460;2022-10-31T04:31:18;137.03;;;46.40;;
18738;SDS011;9498;51.862;19.460;2022-10-31T04:33:45;135.23;;;45.87;;
18738;SDS011;9498;51.862;19.460;2022-10-31T04:36:12;136.07;;;48.43;;
18738;SDS011;9498;51.862;19.460;2022-10-31T04:38:39;173.25;;;62.65;;
18738;SDS011;9498;51.862;19.460;2022-10-31T04:41:07;151.80;;;51.97;;
18738;SDS011;9498;51.862;19.460;2022-10-31T04:43:34;155.57;;;53.17;;
18738;SDS011;9498;51.862;19.460;2022-10-31T04:46:03;152.20;;;54.10;;
18738;SDS011;9498;51.862;19.460;2022-10-31T04:48:30;153.50;;;54.00;;
18738;SDS011;9498;51.862;19.460;2022-10-31T04:51:00;171.03;;;56.63;;
18738;SDS011;9498;51.862;19.460;2022-10-31T04:53:28;192.40;;;57.50;;
18738;SDS011;9498;51.862;19.460;2022-10-31T04:55:57;145.63;;;51.60;;
18738;SDS011;9498;51.862;19.460;2022-10-31T04:58:24;138.00;;;49.10;;
18738;SDS011;9498;51.862;19.460;2022-10-31T05:00:52;132.13;;;46.80;;
18738;SDS011;9498;51.862;19.460;2022-10-31T05:03:20;110.83;;;42.60;;
18738;SDS011;9498;51.862;19.460;2022-10-31T05:05:48;121.97;;;43.67;;
18738;SDS011;9498;51.862;19.460;2022-10-31T05:08:15;99.90;;;40.17;;
18738;SDS011;9498;51.862;19.460;2022-10-31T05:10:42;115.40;;;51.08;;
18738;SDS011;9498;51.862;19.460;2022-10-31T05:13:10;108.07;;;43.07;;
18738;SDS011;9498;51.862;19.460;2022-10-31T05:15:37;99.17;;;41.10;;
18738;SDS011;9498;51.862;19.460;2022-10-31T05:18:04;102.37;;;39.97;;
18738;SDS011;9498;51.862;19.460;2022-10-31T05:20:33;94.63;;;39.60;;
18738;SDS011;9498;51.862;19.460;2022-10-31T05:23:00;92.13;;;38.60;;
18738;SDS011;9498;51.862;19.460;2022-10-31T05:25:27;90.70;;;38.97;;
18738;SDS011;9498;51.862;19.460;2022-10-31T05:27:55;88.93;;;39.17;;
18738;SDS011;9498;51.862;19.460;2022-10-31T05:30:23;82.90;;;37.77;;
18738;SDS011;9498;51.862;19.460;2022-10-31T05:32:51;85.67;;;38.03;;
18738;SDS011;9498;51.862;19.460;2022-10-31T05:35:18;74.37;;;35.43;;
18738;SDS011;9498;51.862;19.460;2022-10-31T05:37:47;82.43;;;37.77;;
18738;SDS011;9498;51.862;19.460;2022-10-31T05:40:15;79.43;;;37.53;;
18738;SDS011;9498;51.862;19.460;2022-10-31T05:42:43;74.47;;;36.27;;
18738;SDS011;9498;51.862;19.460;2022-10-31T05:45:11;76.80;;;36.40;;
18738;SDS011;9498;51.862;19.460;2022-10-31T05:47:39;92.53;;;40.13;;
18738;SDS011;9498;51.862;19.460;2022-10-31T05:50:07;94.43;;;39.40;;
18738;SDS011;9498;51.862;19.460;2022-10-31T05:52:34;78.97;;;37.20;;
18738;SDS011;9498;51.862;19.460;2022-10-31T05:55:03;91.63;;;39.07;;
18738;SDS011;9498;51.862;19.460;2022-10-31T05:57:31;105.70;;;41.97;;
18738;SDS011;9498;51.862;19.460;2022-10-31T05:59:59;105.20;;;40.10;;
18738;SDS011;9498;51.862;19.460;2022-10-31T06:02:26;110.33;;;43.17;;
18738;SDS011;9498;51.862;19.460;2022-10-31T06:04:57;102.73;;;42.97;;
18738;SDS011;9498;51.862;19.460;2022-10-31T06:07:24;147.67;;;45.10;;
18738;SDS011;9498;51.862;19.460;2022-10-31T06:09:51;104.77;;;43.03;;
18738;SDS011;9498;51.862;19.460;2022-10-31T06:12:20;101.93;;;42.13;;
18738;SDS011;9498;51.862;19.460;2022-10-31T06:14:47;115.53;;;43.17;;
18738;SDS011;9498;51.862;19.460;2022-10-31T06:17:14;98.23;;;41.70;;
18738;SDS011;9498;51.862;19.460;2022-10-31T06:19:42;105.40;;;43.43;;
18738;SDS011;9498;51.862;19.460;2022-10-31T06:22:09;111.67;;;42.73;;
18738;SDS011;9498;51.862;19.460;2022-10-31T06:24:37;110.77;;;43.47;;
18738;SDS011;9498;51.862;19.460;2022-10-31T06:27:04;108.53;;;43.90;;
18738;SDS011;9498;51.862;19.460;2022-10-31T06:29:33;94.77;;;40.60;;
18738;SDS011;9498;51.862;19.460;2022-10-31T06:32:00;109.73;;;42.60;;
18738;SDS011;9498;51.862;19.460;2022-10-31T06:34:27;102.30;;;41.90;;
18738;SDS011;9498;51.862;19.460;2022-10-31T06:36:54;91.97;;;41.80;;
18738;SDS011;9498;51.862;19.460;2022-10-31T06:39:22;92.17;;;40.43;;
18738;SDS011;9498;51.862;19.460;2022-10-31T06:41:49;94.43;;;39.00;;
18738;SDS011;9498;51.862;19.460;2022-10-31T06:44:16;92.83;;;40.53;;
18738;SDS011;9498;51.862;19.460;2022-10-31T06:46:46;89.53;;;39.20;;
18738;SDS011;9498;51.862;19.460;2022-10-31T06:49:14;92.43;;;39.87;;
18738;SDS011;9498;51.862;19.460;2022-10-31T06:51:41;83.27;;;40.27;;
18738;SDS011;9498;51.862;19.460;2022-10-31T06:54:08;89.60;;;38.60;;
18738;SDS011;9498;51.862;19.460;2022-10-31T06:56:36;92.57;;;39.90;;
18738;SDS011;9498;51.862;19.460;2022-10-31T06:59:03;94.00;;;40.77;;
18738;SDS011;9498;51.862;19.460;2022-10-31T07:01:30;99.00;;;42.67;;
18738;SDS011;9498;51.862;19.460;2022-10-31T07:03:59;88.70;;;40.80;;
18738;SDS011;9498;51.862;19.460;2022-10-31T07:06:26;100.97;;;44.77;;
18738;SDS011;9498;51.862;19.460;2022-10-31T07:08:53;98.87;;;44.77;;
18738;SDS011;9498;51.862;19.460;2022-10-31T07:11:21;103.73;;;44.87;;
18738;SDS011;9498;51.862;19.460;2022-10-31T07:13:48;100.83;;;45.33;;
18738;SDS011;9498;51.862;19.460;2022-10-31T07:16:15;100.53;;;45.20;;
18738;SDS011;9498;51.862;19.460;2022-10-31T07:18:42;106.00;;;44.70;;
18738;SDS011;9498;51.862;19.460;2022-10-31T07:21:11;107.60;;;45.83;;
18738;SDS011;9498;51.862;19.460;2022-10-31T07:23:38;93.60;;;44.63;;
18738;SDS011;9498;51.862;19.460;2022-10-31T07:26:05;96.73;;;45.27;;
18738;SDS011;9498;51.862;19.460;2022-10-31T07:28:32;100.70;;;44.03;;
18738;SDS011;9498;51.862;19.460;2022-10-31T07:31:00;104.53;;;43.33;;
18738;SDS011;9498;51.862;19.460;2022-10-31T07:33:27;106.43;;;44.43;;
18738;SDS011;9498;51.862;19.460;2022-10-31T07:35:54;112.17;;;43.23;;
18738;SDS011;9498;51.862;19.460;2022-10-31T07:38:23;98.57;;;44.00;;
18738;SDS011;9498;51.862;19.460;2022-10-31T07:40:51;91.70;;;42.07;;
18738;SDS011;9498;51.862;19.460;2022-10-31T07:43:18;92.07;;;41.77;;
18738;SDS011;9498;51.862;19.460;2022-10-31T07:45:49;100.60;;;41.77;;
18738;SDS011;9498;51.862;19.460;2022-10-31T07:48:17;119.57;;;44.20;;
18738;SDS011;9498;51.862;19.460;2022-10-31T07:50:44;96.23;;;42.50;;
18738;SDS011;9498;51.862;19.460;2022-10-31T07:53:11;103.83;;;43.17;;
18738;SDS011;9498;51.862;19.460;2022-10-31T07:55:40;98.97;;;42.60;;
18738;SDS011;9498;51.862;19.460;2022-10-31T07:58:08;101.33;;;42.97;;
18738;SDS011;9498;51.862;19.460;2022-10-31T08:00:36;106.40;;;43.63;;
18738;SDS011;9498;51.862;19.460;2022-10-31T08:03:04;92.43;;;41.47;;
18738;SDS011;9498;51.862;19.460;2022-10-31T08:05:32;96.60;;;41.27;;
18738;SDS011;9498;51.862;19.460;2022-10-31T08:08:00;102.03;;;43.77;;
18738;SDS011;9498;51.862;19.460;2022-10-31T08:10:27;113.80;;;44.23;;
18738;SDS011;9498;51.862;19.460;2022-10-31T08:12:56;99.10;;;43.97;;
18738;SDS011;9498;51.862;19.460;2022-10-31T08:15:24;89.77;;;42.53;;
18738;SDS011;9498;51.862;19.460;2022-10-31T08:17:51;95.67;;;42.10;;
18738;SDS011;9498;51.862;19.460;2022-10-31T08:20:19;101.90;;;44.23;;
18738;SDS011;9498;51.862;19.460;2022-10-31T08:22:53;96.83;;;43.20;;
18738;SDS011;9498;51.862;19.460;2022-10-31T08:25:21;94.97;;;44.30;;
18738;SDS011;9498;51.862;19.460;2022-10-31T08:27:48;109.00;;;45.17;;
18738;SDS011;9498;51.862;19.460;2022-10-31T08:30:18;103.37;;;44.07;;
18738;SDS011;9498;51.862;19.460;2022-10-31T08:32:45;108.10;;;50.73;;
18738;SDS011;9498;51.862;19.460;2022-10-31T08:35:13;99.87;;;46.53;;
18738;SDS011;9498;51.862;19.460;2022-10-31T08:37:40;97.50;;;44.80;;
18738;SDS011;9498;51.862;19.460;2022-10-31T08:40:08;103.23;;;45.47;;
18738;SDS011;9498;51.862;19.460;2022-10-31T08:42:36;100.90;;;45.17;;
18738;SDS011;9498;51.862;19.460;2022-10-31T08:45:03;107.95;;;50.05;;
18738;SDS011;9498;51.862;19.460;2022-10-31T08:47:32;101.23;;;45.23;;
18738;SDS011;9498;51.862;19.460;2022-10-31T08:49:59;111.23;;;47.50;;
18738;SDS011;9498;51.862;19.460;2022-10-31T08:52:26;101.83;;;46.63;;
18738;SDS011;9498;51.862;19.460;2022-10-31T08:54:53;107.87;;;46.30;;
18738;SDS011;9498;51.862;19.460;2022-10-31T08:57:21;123.90;;;55.30;;
18738;SDS011;9498;51.862;19.460;2022-10-31T08:59:48;102.13;;;47.30;;
18738;SDS011;9498;51.862;19.460;2022-10-31T09:02:15;108.43;;;46.37;;
18738;SDS011;9498;51.862;19.460;2022-10-31T09:04:44;115.20;;;48.00;;
18738;SDS011;9498;51.862;19.460;2022-10-31T09:07:11;133.90;;;52.03;;
18738;SDS011;9498;51.862;19.460;2022-10-31T09:09:38;126.13;;;50.17;;
18738;SDS011;9498;51.862;19.460;2022-10-31T09:12:05;130.13;;;49.80;;
18738;SDS011;9498;51.862;19.460;2022-10-31T09:14:33;135.43;;;51.77;;
18738;SDS011;9498;51.862;19.460;2022-10-31T09:17:00;143.43;;;51.17;;
18738;SDS011;9498;51.862;19.460;2022-10-31T09:19:27;156.98;;;59.45;;
18738;SDS011;9498;51.862;19.460;2022-10-31T09:21:56;139.00;;;49.83;;
18738;SDS011;9498;51.862;19.460;2022-10-31T09:24:23;134.97;;;49.67;;
18738;SDS011;9498;51.862;19.460;2022-10-31T09:26:51;127.27;;;48.47;;
18738;SDS011;9498;51.862;19.460;2022-10-31T09:29:18;127.47;;;49.22;;
18738;SDS011;9498;51.862;19.460;2022-10-31T09:31:45;141.03;;;48.57;;
18738;SDS011;9498;51.862;19.460;2022-10-31T09:34:12;130.90;;;46.30;;
18738;SDS011;9498;51.862;19.460;2022-10-31T09:36:39;136.43;;;48.90;;
18738;SDS011;9498;51.862;19.460;2022-10-31T09:39:09;130.87;;;46.30;;
18738;SDS011;9498;51.862;19.460;2022-10-31T09:44:46;131.43;;;46.33;;
18738;SDS011;9498;51.862;19.460;2022-10-31T09:47:16;134.20;;;45.90;;
18738;SDS011;9498;51.862;19.460;2022-10-31T09:49:52;126.63;;;43.50;;
18738;SDS011;9498;51.862;19.460;2022-10-31T09:52:23;131.02;;;51.08;;
18738;SDS011;9498;51.862;19.460;2022-10-31T09:54:54;117.93;;;43.80;;
18738;SDS011;9498;51.862;19.460;2022-10-31T09:57:23;129.33;;;45.13;;
18738;SDS011;9498;51.862;19.460;2022-10-31T09:59:51;126.53;;;44.30;;
18738;SDS011;9498;51.862;19.460;2022-10-31T10:02:20;124.07;;;44.03;;
18738;SDS011;9498;51.862;19.460;2022-10-31T10:04:51;122.87;;;45.37;;
18738;SDS011;9498;51.862;19.460;2022-10-31T10:07:30;127.70;;;44.70;;
18738;SDS011;9498;51.862;19.460;2022-10-31T10:10:01;136.20;;;44.40;;
18738;SDS011;9498;51.862;19.460;2022-10-31T10:12:34;121.33;;;44.23;;
18738;SDS011;9498;51.862;19.460;2022-10-31T10:15:15;152.47;;;47.40;;
18738;SDS011;9498;51.862;19.460;2022-10-31T10:17:46;128.63;;;43.37;;
18738;SDS011;9498;51.862;19.460;2022-10-31T10:20:18;133.13;;;46.40;;
18738;SDS011;9498;51.862;19.460;2022-10-31T10:22:50;139.93;;;46.97;;
18738;SDS011;9498;51.862;19.460;2022-10-31T10:25:21;144.20;;;45.80;;
18738;SDS011;9498;51.862;19.460;2022-10-31T10:27:52;132.27;;;46.47;;
18738;SDS011;9498;51.862;19.460;2022-10-31T10:30:22;153.13;;;48.33;;
18738;SDS011;9498;51.862;19.460;2022-10-31T10:32:55;147.27;;;47.57;;
18738;SDS011;9498;51.862;19.460;2022-10-31T10:35:25;144.73;;;46.27;;
18738;SDS011;9498;51.862;19.460;2022-10-31T10:37:56;139.57;;;47.50;;
18738;SDS011;9498;51.862;19.460;2022-10-31T10:40:27;137.00;;;46.23;;
18738;SDS011;9498;51.862;19.460;2022-10-31T10:42:56;142.13;;;45.63;;
18738;SDS011;9498;51.862;19.460;2022-10-31T10:45:43;143.67;;;47.70;;
18738;SDS011;9498;51.862;19.460;2022-10-31T10:48:32;144.57;;;46.77;;
18738;SDS011;9498;51.862;19.460;2022-10-31T10:51:03;139.90;;;49.83;;
18738;SDS011;9498;51.862;19.460;2022-10-31T10:53:39;145.90;;;47.23;;
18738;SDS011;9498;51.862;19.460;2022-10-31T10:56:29;137.63;;;47.93;;
18738;SDS011;9498;51.862;19.460;2022-10-31T10:58:57;146.23;;;50.40;;
18738;SDS011;9498;51.862;19.460;2022-10-31T11:01:25;132.97;;;48.80;;
18738;SDS011;9498;51.862;19.460;2022-10-31T11:03:52;142.73;;;47.97;;
18738;SDS011;9498;51.862;19.460;2022-10-31T11:06:20;140.20;;;48.03;;
18738;SDS011;9498;51.862;19.460;2022-10-31T11:08:51;137.03;;;47.87;;
18738;SDS011;9498;51.862;19.460;2022-10-31T11:11:25;135.87;;;46.80;;
18738;SDS011;9498;51.862;19.460;2022-10-31T11:13:57;128.93;;;46.90;;
18738;SDS011;9498;51.862;19.460;2022-10-31T11:16:29;134.03;;;47.33;;
18738;SDS011;9498;51.862;19.460;2022-10-31T11:19:05;130.47;;;45.97;;
18738;SDS011;9498;51.862;19.460;2022-10-31T11:21:33;127.93;;;44.80;;
18738;SDS011;9498;51.862;19.460;2022-10-31T11:24:01;122.73;;;46.00;;
18738;SDS011;9498;51.862;19.460;2022-10-31T11:26:29;134.30;;;48.17;;
18738;SDS011;9498;51.862;19.460;2022-10-31T11:28:58;129.43;;;49.80;;
18738;SDS011;9498;51.862;19.460;2022-10-31T11:31:28;130.57;;;47.77;;
18738;SDS011;9498;51.862;19.460;2022-10-31T11:33:57;114.40;;;45.20;;
18738;SDS011;9498;51.862;19.460;2022-10-31T11:36:25;116.30;;;44.23;;
18738;SDS011;9498;51.862;19.460;2022-10-31T11:38:53;116.90;;;43.23;;
18738;SDS011;9498;51.862;19.460;2022-10-31T11:41:24;107.27;;;43.93;;
18738;SDS011;9498;51.862;19.460;2022-10-31T11:43:54;110.60;;;45.33;;
18738;SDS011;9498;51.862;19.460;2022-10-31T11:46:24;100.47;;;41.47;;
18738;SDS011;9498;51.862;19.460;2022-10-31T11:48:54;110.07;;;43.93;;
18738;SDS011;9498;51.862;19.460;2022-10-31T11:51:24;119.67;;;46.73;;
18738;SDS011;9498;51.862;19.460;2022-10-31T11:53:52;116.80;;;45.80;;
18738;SDS011;9498;51.862;19.460;2022-10-31T11:56:20;111.00;;;44.50;;
18738;SDS011;9498;51.862;19.460;2022-10-31T11:58:54;112.77;;;45.80;;
18738;SDS011;9498;51.862;19.460;2022-10-31T12:01:25;101.90;;;42.27;;
18738;SDS011;9498;51.862;19.460;2022-10-31T12:03:54;111.30;;;43.17;;
18738;SDS011;9498;51.862;19.460;2022-10-31T12:06:25;101.77;;;42.40;;
18738;SDS011;9498;51.862;19.460;2022-10-31T12:08:54;101.13;;;43.30;;
18738;SDS011;9498;51.862;19.460;2022-10-31T12:11:27;96.83;;;40.70;;
18738;SDS011;9498;51.862;19.460;2022-10-31T12:14:00;105.07;;;41.47;;
18738;SDS011;9498;51.862;19.460;2022-10-31T12:16:31;88.73;;;38.83;;
18738;SDS011;9498;51.862;19.460;2022-10-31T12:19:00;95.30;;;38.33;;
18738;SDS011;9498;51.862;19.460;2022-10-31T12:21:40;93.07;;;41.40;;
18738;SDS011;9498;51.862;19.460;2022-10-31T12:24:13;85.97;;;38.63;;
18738;SDS011;9498;51.862;19.460;2022-10-31T12:26:45;89.90;;;39.07;;
18738;SDS011;9498;51.862;19.460;2022-10-31T12:29:21;75.23;;;36.37;;
18738;SDS011;9498;51.862;19.460;2022-10-31T12:32:03;90.40;;;37.10;;
18738;SDS011;9498;51.862;19.460;2022-10-31T12:34:44;81.77;;;36.17;;
18738;SDS011;9498;51.862;19.460;2022-10-31T12:37:15;78.90;;;34.47;;
18738;SDS011;9498;51.862;19.460;2022-10-31T12:39:44;84.70;;;37.90;;
18738;SDS011;9498;51.862;19.460;2022-10-31T12:42:17;82.43;;;41.00;;
18738;SDS011;9498;51.862;19.460;2022-10-31T12:44:56;86.03;;;37.47;;
18738;SDS011;9498;51.862;19.460;2022-10-31T12:47:40;80.47;;;35.60;;
18738;SDS011;9498;51.862;19.460;2022-10-31T12:50:13;75.07;;;34.93;;
18738;SDS011;9498;51.862;19.460;2022-10-31T12:52:47;76.00;;;34.53;;
18738;SDS011;9498;51.862;19.460;2022-10-31T12:55:23;78.53;;;34.50;;
18738;SDS011;9498;51.862;19.460;2022-10-31T12:57:54;73.77;;;34.17;;
18738;SDS011;9498;51.862;19.460;2022-10-31T13:00:23;81.13;;;35.00;;
18738;SDS011;9498;51.862;19.460;2022-10-31T13:02:54;82.45;;;39.03;;
18738;SDS011;9498;51.862;19.460;2022-10-31T13:05:25;69.93;;;35.47;;
18738;SDS011;9498;51.862;19.460;2022-10-31T13:07:55;80.30;;;35.00;;
18738;SDS011;9498;51.862;19.460;2022-10-31T13:10:25;72.07;;;33.53;;
18738;SDS011;9498;51.862;19.460;2022-10-31T13:12:54;72.40;;;32.87;;
18738;SDS011;9498;51.862;19.460;2022-10-31T13:15:24;80.40;;;36.83;;
18738;SDS011;9498;51.862;19.460;2022-10-31T13:17:55;67.77;;;32.43;;
18738;SDS011;9498;51.862;19.460;2022-10-31T13:20:24;69.83;;;32.17;;
18738;SDS011;9498;51.862;19.460;2022-10-31T13:22:54;70.60;;;31.43;;
18738;SDS011;9498;51.862;19.460;2022-10-31T13:25:23;87.18;;;37.17;;
18738;SDS011;9498;51.862;19.460;2022-10-31T13:27:52;71.03;;;32.37;;
18738;SDS011;9498;51.862;19.460;2022-10-31T13:30:21;72.17;;;32.40;;
18738;SDS011;9498;51.862;19.460;2022-10-31T13:32:50;73.07;;;31.87;;
18738;SDS011;9498;51.862;19.460;2022-10-31T13:35:22;69.03;;;31.43;;
18738;SDS011;9498;51.862;19.460;2022-10-31T13:37:52;76.40;;;32.33;;
18738;SDS011;9498;51.862;19.460;2022-10-31T13:40:26;63.60;;;31.77;;
18738;SDS011;9498;51.862;19.460;2022-10-31T13:42:57;72.87;;;33.43;;
18738;SDS011;9498;51.862;19.460;2022-10-31T13:45:26;73.83;;;32.23;;
18738;SDS011;9498;51.862;19.460;2022-10-31T13:47:55;81.47;;;36.63;;
18738;SDS011;9498;51.862;19.460;2022-10-31T13:50:25;79.70;;;36.07;;
18738;SDS011;9498;51.862;19.460;2022-10-31T13:53:03;85.37;;;37.97;;
18738;SDS011;9498;51.862;19.460;2022-10-31T13:55:38;92.67;;;38.87;;
18738;SDS011;9498;51.862;19.460;2022-10-31T13:58:19;88.87;;;40.07;;
18738;SDS011;9498;51.862;19.460;2022-10-31T14:00:46;87.00;;;39.07;;
18738;SDS011;9498;51.862;19.460;2022-10-31T14:03:24;92.20;;;38.10;;
18738;SDS011;9498;51.862;19.460;2022-10-31T14:05:54;84.20;;;38.53;;
18738;SDS011;9498;51.862;19.460;2022-10-31T14:08:23;85.27;;;39.60;;
18738;SDS011;9498;51.862;19.460;2022-10-31T14:10:51;92.67;;;39.87;;
18738;SDS011;9498;51.862;19.460;2022-10-31T14:13:20;93.30;;;40.23;;
18738;SDS011;9498;51.862;19.460;2022-10-31T14:15:52;90.90;;;39.03;;
18738;SDS011;9498;51.862;19.460;2022-10-31T14:18:21;88.17;;;39.17;;
18738;SDS011;9498;51.862;19.460;2022-10-31T14:20:50;94.97;;;40.40;;
18738;SDS011;9498;51.862;19.460;2022-10-31T14:26:06;87.37;;;38.67;;
18738;SDS011;9498;51.862;19.460;2022-10-31T14:28:34;84.17;;;39.17;;
18738;SDS011;9498;51.862;19.460;2022-10-31T14:31:01;89.10;;;38.97;;
18738;SDS011;9498;51.862;19.460;2022-10-31T14:33:29;90.47;;;40.20;;
18738;SDS011;9498;51.862;19.460;2022-10-31T14:36:00;91.97;;;42.07;;